sensor_id;sensor_type;location;lat;lon;timestamp;pressure;altitude;pressure_sealevel;temperature;humidity
6343;BME280;3204;42.698;23.298;2022-10-20T00:01:25;95418.59;;;15.21;73.40
6343;BME280;3204;42.698;23.298;2022-10-20T00:03:51;95419.75;;;15.12;74.26
6343;BME280;3204;42.698;23.298;2022-10-20T00:06:25;95418.34;;;15.06;74.37
6343;BME280;3204;42.698;23.298;2022-10-20T00:08:53;95421.22;;;15.09;73.91
6343;BME280;3204;42.698;23.298;2022-10-20T00:11:20;95422.00;;;15.10;74.20
6343;BME280;3204;42.698;23.298;2022-10-20T00:13:47;95414.47;;;15.07;73.92
6343;BME280;3204;42.698;23.298;2022-10-20T00:16:13;95414.94;;;15.09;73.50
6343;BME280;3204;42.698;23.298;2022-10-20T00:18:39;95411.25;;;15.13;73.09
6343;BME280;3204;42.698;23.298;2022-10-20T00:21:07;95410.59;;;15.08;73.01
6343;BME280;3204;42.698;23.298;2022-10-20T00:23:33;95415.44;;;15.02;73.04
6343;BME280;3204;42.698;23.298;2022-10-20T00:26:06;95418.66;;;15.04;72.29
6343;BME280;3204;42.698;23.298;2022-10-20T00:28:33;95415.44;;;15.11;71.26
6343;BME280;3204;42.698;23.298;2022-10-20T00:30:59;95415.72;;;15.18;70.75
6343;BME280;3204;42.698;23.298;2022-10-20T00:33:25;95403.88;;;15.05;70.73
6343;BME280;3204;42.698;23.298;2022-10-20T00:35:51;95404.00;;;15.09;70.64
6343;BME280;3204;42.698;23.298;2022-10-20T00:38:16;95399.03;;;15.02;70.13
6343;BME280;3204;42.698;23.298;2022-10-20T00:40:42;95405.00;;;14.96;70.51
6343;BME280;3204;42.698;23.298;2022-10-20T00:43:15;95398.59;;;14.92;70.10
6343;BME280;3204;42.698;23.298;2022-10-20T00:45:42;95393.13;;;14.92;69.75
6343;BME280;3204;42.698;23.298;2022-10-20T00:48:18;95396.81;;;14.87;69.32
6343;BME280;3204;42.698;23.298;2022-10-20T00:50:49;95384.97;;;14.75;69.67
6343;BME280;3204;42.698;23.298;2022-10-20T00:53:18;95394.28;;;14.82;69.20
6343;BME280;3204;42.698;23.298;2022-10-20T00:55:48;95394.91;;;14.88;68.56
6343;BME280;3204;42.698;23.298;2022-10-20T00:58:15;95399.25;;;14.80;68.44
6343;BME280;3204;42.698;23.298;2022-10-20T01:00:43;95397.81;;;14.83;68.09
6343;BME280;3204;42.698;23.298;2022-10-20T01:03:16;95394.13;;;14.79;68.17
6343;BME280;3204;42.698;23.298;2022-10-20T01:05:44;95407.28;;;14.85;67.76
6343;BME280;3204;42.698;23.298;2022-10-20T01:08:09;95394.59;;;14.89;67.43
6343;BME280;3204;42.698;23.298;2022-10-20T01:11:03;95406.66;;;14.80;67.48
6343;BME280;3204;42.698;23.298;2022-10-20T01:13:39;95393.97;;;14.75;67.64
6343;BME280;3204;42.698;23.298;2022-10-20T01:18:56;95400.38;;;14.71;67.18
6343;BME280;3204;42.698;23.298;2022-10-20T01:21:44;95399.25;;;14.80;66.47
6343;BME280;3204;42.698;23.298;2022-10-20T01:29:43;95394.59;;;14.72;66.34
6343;BME280;3204;42.698;23.298;2022-10-20T01:32:21;95397.03;;;14.65;66.88
6343;BME280;3204;42.698;23.298;2022-10-20T01:37:50;95403.25;;;14.74;65.79
6343;BME280;3204;42.698;23.298;2022-10-20T01:43:26;95398.63;;;14.58;66.48
6343;BME280;3204;42.698;23.298;2022-10-20T01:45:54;95402.34;;;14.53;66.75
6343;BME280;3204;42.698;23.298;2022-10-20T01:48:25;95399.13;;;14.51;66.87
6343;BME280;3204;42.698;23.298;2022-10-20T01:50:52;95405.72;;;14.42;67.13
6343;BME280;3204;42.698;23.298;2022-10-20T01:53:18;95407.16;;;14.39;67.27
6343;BME280;3204;42.698;23.298;2022-10-20T01:55:44;95408.59;;;14.37;67.43
6343;BME280;3204;42.698;23.298;2022-10-20T02:00:48;95402.97;;;14.25;68.39
6343;BME280;3204;42.698;23.298;2022-10-20T02:09:17;95422.03;;;14.08;69.19
6343;BME280;3204;42.698;23.298;2022-10-20T02:11:57;95422.34;;;13.98;69.54
6343;BME280;3204;42.698;23.298;2022-10-20T02:14:24;95414.78;;;13.86;70.19
6343;BME280;3204;42.698;23.298;2022-10-20T02:16:59;95424.72;;;13.82;70.08
6343;BME280;3204;42.698;23.298;2022-10-20T02:19:31;95417.00;;;13.76;70.27
6343;BME280;3204;42.698;23.298;2022-10-20T02:21:58;95423.72;;;13.78;70.39
6343;BME280;3204;42.698;23.298;2022-10-20T02:24:28;95432.88;;;13.74;70.49
6343;BME280;3204;42.698;23.298;2022-10-20T02:26:58;95439.75;;;13.71;70.76
6343;BME280;3204;42.698;23.298;2022-10-20T02:29:32;95437.00;;;13.63;70.78
6343;BME280;3204;42.698;23.298;2022-10-20T02:32:01;95438.25;;;13.57;71.36
6343;BME280;3204;42.698;23.298;2022-10-20T02:34:27;95439.69;;;13.54;71.53
6343;BME280;3204;42.698;23.298;2022-10-20T02:36:56;95435.19;;;13.50;72.24
6343;BME280;3204;42.698;23.298;2022-10-20T02:39:22;95442.22;;;13.42;72.45
6343;BME280;3204;42.698;23.298;2022-10-20T02:41:48;95441.56;;;13.37;72.89
6343;BME280;3204;42.698;23.298;2022-10-20T02:44:13;95435.41;;;13.31;72.98
6343;BME280;3204;42.698;23.298;2022-10-20T02:46:39;95444.72;;;13.30;73.04
6343;BME280;3204;42.698;23.298;2022-10-20T02:49:05;95441.31;;;13.25;73.22
6343;BME280;3204;42.698;23.298;2022-10-20T02:51:30;95447.53;;;13.17;73.33
6343;BME280;3204;42.698;23.298;2022-10-20T02:53:56;95444.00;;;13.16;73.56
6343;BME280;3204;42.698;23.298;2022-10-20T02:56:21;95444.31;;;13.15;73.28
6343;BME280;3204;42.698;23.298;2022-10-20T02:58:47;95447.84;;;13.15;72.88
6343;BME280;3204;42.698;23.298;2022-10-20T03:01:13;95452.94;;;13.08;73.34
6343;BME280;3204;42.698;23.298;2022-10-20T03:03:39;95446.81;;;13.03;73.62
6343;BME280;3204;42.698;23.298;2022-10-20T03:06:12;95451.47;;;13.02;73.32
6343;BME280;3204;42.698;23.298;2022-10-20T03:08:38;95456.41;;;13.00;73.44
6343;BME280;3204;42.698;23.298;2022-10-20T03:11:04;95447.53;;;12.95;73.69
6343;BME280;3204;42.698;23.298;2022-10-20T03:13:30;95462.16;;;12.99;73.69
6343;BME280;3204;42.698;23.298;2022-10-20T03:15:56;95454.00;;;12.99;73.90
6343;BME280;3204;42.698;23.298;2022-10-20T03:18:21;95453.13;;;12.90;74.23
6343;BME280;3204;42.698;23.298;2022-10-20T03:20:49;95454.53;;;12.87;74.58
6343;BME280;3204;42.698;23.298;2022-10-20T03:23:16;95457.69;;;12.81;74.83
6343;BME280;3204;42.698;23.298;2022-10-20T03:25:41;95460.41;;;12.81;74.75
6343;BME280;3204;42.698;23.298;2022-10-20T03:28:06;95463.94;;;12.81;74.66
6343;BME280;3204;42.698;23.298;2022-10-20T03:30:32;95461.03;;;12.78;74.77
6343;BME280;3204;42.698;23.298;2022-10-20T03:32:57;95456.69;;;12.77;74.79
6343;BME280;3204;42.698;23.298;2022-10-20T03:35:23;95458.94;;;12.75;74.90
6343;BME280;3204;42.698;23.298;2022-10-20T03:37:49;95471.44;;;12.76;74.87
6343;BME280;3204;42.698;23.298;2022-10-20T03:40:14;95466.72;;;12.68;75.20
6343;BME280;3204;42.698;23.298;2022-10-20T03:42:40;95469.88;;;12.61;75.79
6343;BME280;3204;42.698;23.298;2022-10-20T03:45:06;95474.22;;;12.62;75.87
6343;BME280;3204;42.698;23.298;2022-10-20T03:47:32;95470.06;;;12.65;75.38
6343;BME280;3204;42.698;23.298;2022-10-20T03:49:58;95477.25;;;12.61;76.10
6343;BME280;3204;42.698;23.298;2022-10-20T03:52:23;95481.69;;;12.57;76.09
6343;BME280;3204;42.698;23.298;2022-10-20T03:54:49;95484.03;;;12.72;75.82
6343;BME280;3204;42.698;23.298;2022-10-20T03:57:15;95489.63;;;12.67;75.82
6343;BME280;3204;42.698;23.298;2022-10-20T03:59:40;95492.97;;;12.64;75.86
6343;BME280;3204;42.698;23.298;2022-10-20T04:02:06;95496.41;;;12.56;76.17
6343;BME280;3204;42.698;23.298;2022-10-20T04:04:31;95489.38;;;12.55;75.98
6343;BME280;3204;42.698;23.298;2022-10-20T04:06:57;95491.28;;;12.54;76.08
6343;BME280;3204;42.698;23.298;2022-10-20T04:09:22;95485.66;;;12.51;76.32
6343;BME280;3204;42.698;23.298;2022-10-20T04:11:48;95487.84;;;12.49;76.37
6343;BME280;3204;42.698;23.298;2022-10-20T04:14:14;95483.34;;;12.44;76.49
6343;BME280;3204;42.698;23.298;2022-10-20T04:16:39;95488.84;;;12.53;76.53
6343;BME280;3204;42.698;23.298;2022-10-20T04:19:06;95484.84;;;12.50;76.59
6343;BME280;3204;42.698;23.298;2022-10-20T04:21:32;95484.66;;;12.47;76.59
6343;BME280;3204;42.698;23.298;2022-10-20T04:23:57;95490.69;;;12.44;76.95
6343;BME280;3204;42.698;23.298;2022-10-20T04:26:22;95481.88;;;12.38;77.31
6343;BME280;3204;42.698;23.298;2022-10-20T04:28:48;95484.66;;;12.47;77.22
6343;BME280;3204;42.698;23.298;2022-10-20T04:31:13;95480.63;;;12.44;77.80
6343;BME280;3204;42.698;23.298;2022-10-20T04:33:39;95487.19;;;12.43;77.75
6343;BME280;3204;42.698;23.298;2022-10-20T04:36:06;95479.78;;;12.57;77.26
6343;BME280;3204;42.698;23.298;2022-10-20T04:38:33;95486.44;;;12.51;77.40
6343;BME280;3204;42.698;23.298;2022-10-20T04:41:01;95483.84;;;12.46;77.61
6343;BME280;3204;42.698;23.298;2022-10-20T04:43:29;95495.66;;;12.42;77.93
6343;BME280;3204;42.698;23.298;2022-10-20T04:45:59;95498.84;;;12.44;78.27
6343;BME280;3204;42.698;23.298;2022-10-20T04:48:24;95491.81;;;12.43;77.50
6343;BME280;3204;42.698;23.298;2022-10-20T04:51:08;95497.25;;;12.43;77.75
6343;BME280;3204;42.698;23.298;2022-10-20T04:53:34;95500.09;;;12.38;77.93
6343;BME280;3204;42.698;23.298;2022-10-20T04:56:00;95497.38;;;12.38;77.95
6343;BME280;3204;42.698;23.298;2022-10-20T04:58:27;95507.25;;;12.34;78.15
6343;BME280;3204;42.698;23.298;2022-10-20T05:00:52;95503.41;;;12.35;77.99
6343;BME280;3204;42.698;23.298;2022-10-20T05:03:18;95502.81;;;12.38;77.90
6343;BME280;3204;42.698;23.298;2022-10-20T05:05:47;95514.63;;;12.33;78.03
6343;BME280;3204;42.698;23.298;2022-10-20T05:08:13;95518.75;;;12.31;78.01
6343;BME280;3204;42.698;23.298;2022-10-20T05:10:39;95516.53;;;12.33;78.21
6343;BME280;3204;42.698;23.298;2022-10-20T05:13:04;95521.38;;;12.36;77.96
6343;BME280;3204;42.698;23.298;2022-10-20T05:15:29;95513.81;;;12.33;78.30
6343;BME280;3204;42.698;23.298;2022-10-20T05:17:56;95527.41;;;12.33;78.12
6343;BME280;3204;42.698;23.298;2022-10-20T05:20:22;95524.50;;;12.29;78.35
6343;BME280;3204;42.698;23.298;2022-10-20T05:22:47;95526.41;;;12.29;78.61
6343;BME280;3204;42.698;23.298;2022-10-20T05:25:12;95537.09;;;12.25;79.09
6343;BME280;3204;42.698;23.298;2022-10-20T05:27:38;95540.28;;;12.27;79.06
6343;BME280;3204;42.698;23.298;2022-10-20T05:30:04;95543.72;;;12.33;78.89
6343;BME280;3204;42.698;23.298;2022-10-20T05:32:29;95547.25;;;12.33;78.64
6343;BME280;3204;42.698;23.298;2022-10-20T05:34:55;95550.34;;;12.40;78.52
6343;BME280;3204;42.698;23.298;2022-10-20T05:37:21;95562.84;;;12.41;78.27
6343;BME280;3204;42.698;23.298;2022-10-20T05:39:46;95559.81;;;12.43;78.18
6343;BME280;3204;42.698;23.298;2022-10-20T05:42:11;95572.59;;;12.42;78.15
6343;BME280;3204;42.698;23.298;2022-10-20T05:44:37;95572.84;;;12.46;78.06
6343;BME280;3204;42.698;23.298;2022-10-20T05:47:02;95580.78;;;12.42;78.35
6343;BME280;3204;42.698;23.298;2022-10-20T05:49:28;95591.34;;;12.44;78.17
6343;BME280;3204;42.698;23.298;2022-10-20T05:51:53;95595.16;;;12.56;78.04
6343;BME280;3204;42.698;23.298;2022-10-20T05:54:19;95591.34;;;12.57;78.01
6343;BME280;3204;42.698;23.298;2022-10-20T05:56:44;95596.56;;;12.54;78.11
6343;BME280;3204;42.698;23.298;2022-10-20T05:59:10;95603.03;;;12.58;78.65
6343;BME280;3204;42.698;23.298;2022-10-20T06:01:36;95610.75;;;12.78;77.71
6343;BME280;3204;42.698;23.298;2022-10-20T06:04:18;95608.16;;;12.59;78.79
6343;BME280;3204;42.698;23.298;2022-10-20T06:06:44;95612.19;;;12.62;79.23
6343;BME280;3204;42.698;23.298;2022-10-20T06:09:10;95618.06;;;12.55;79.35
6343;BME280;3204;42.698;23.298;2022-10-20T06:11:36;95622.06;;;12.58;79.36
6343;BME280;3204;42.698;23.298;2022-10-20T06:14:07;95623.09;;;12.62;79.88
6343;BME280;3204;42.698;23.298;2022-10-20T06:16:32;95631.72;;;12.77;79.57
6343;BME280;3204;42.698;23.298;2022-10-20T06:18:58;95640.50;;;12.74;79.65
6343;BME280;3204;42.698;23.298;2022-10-20T06:21:26;95642.09;;;12.89;79.69
6343;BME280;3204;42.698;23.298;2022-10-20T06:23:52;95640.78;;;13.00;79.42
6343;BME280;3204;42.698;23.298;2022-10-20T06:26:20;95640.28;;;12.98;79.50
6343;BME280;3204;42.698;23.298;2022-10-20T06:28:48;95646.91;;;12.92;79.94
6343;BME280;3204;42.698;23.298;2022-10-20T06:31:19;95643.50;;;13.00;79.90
6343;BME280;3204;42.698;23.298;2022-10-20T06:33:46;95652.88;;;13.07;79.56
6343;BME280;3204;42.698;23.298;2022-10-20T06:36:12;95648.31;;;13.16;79.25
6343;BME280;3204;42.698;23.298;2022-10-20T06:38:38;95656.06;;;13.23;79.49
6343;BME280;3204;42.698;23.298;2022-10-20T06:41:06;95657.00;;;13.40;78.97
6343;BME280;3204;42.698;23.298;2022-10-20T06:43:32;95658.56;;;13.55;78.45
6343;BME280;3204;42.698;23.298;2022-10-20T06:46:00;95662.25;;;13.81;77.90
6343;BME280;3204;42.698;23.298;2022-10-20T06:48:26;95656.34;;;13.87;76.49
6343;BME280;3204;42.698;23.298;2022-10-20T06:51:00;95659.06;;;14.09;75.54
6343;BME280;3204;42.698;23.298;2022-10-20T06:53:27;95667.84;;;14.67;74.25
6343;BME280;3204;42.698;23.298;2022-10-20T06:58:25;95670.25;;;15.42;70.40
6343;BME280;3204;42.698;23.298;2022-10-20T07:01:06;95676.81;;;15.75;67.89
6343;BME280;3204;42.698;23.298;2022-10-20T07:03:34;95676.34;;;15.73;66.34
6343;BME280;3204;42.698;23.298;2022-10-20T07:06:01;95682.47;;;15.70;67.29
6343;BME280;3204;42.698;23.298;2022-10-20T07:08:28;95687.75;;;15.83;65.94
6343;BME280;3204;42.698;23.298;2022-10-20T07:11:15;95684.16;;;16.17;65.04
6343;BME280;3204;42.698;23.298;2022-10-20T07:13:41;95680.97;;;16.61;63.09
6343;BME280;3204;42.698;23.298;2022-10-20T07:16:10;95685.47;;;17.03;60.41
6343;BME280;3204;42.698;23.298;2022-10-20T07:18:35;95678.25;;;17.19;59.60
6343;BME280;3204;42.698;23.298;2022-10-20T07:21:04;95689.16;;;16.78;60.31
6343;BME280;3204;42.698;23.298;2022-10-20T07:23:31;95674.50;;;17.03;60.27
6343;BME280;3204;42.698;23.298;2022-10-20T07:26:04;95675.31;;;17.53;58.13
6343;BME280;3204;42.698;23.298;2022-10-20T07:28:30;95680.63;;;17.29;58.59
6343;BME280;3204;42.698;23.298;2022-10-20T07:30:56;95684.28;;;17.13;58.00
6343;BME280;3204;42.698;23.298;2022-10-20T07:33:22;95683.56;;;16.95;58.60
6343;BME280;3204;42.698;23.298;2022-10-20T07:35:47;95680.81;;;16.95;59.05
6343;BME280;3204;42.698;23.298;2022-10-20T07:38:14;95679.34;;;16.98;59.31
6343;BME280;3204;42.698;23.298;2022-10-20T07:40:40;95690.03;;;17.20;58.20
6343;BME280;3204;42.698;23.298;2022-10-20T07:43:05;95677.47;;;17.68;56.91
6343;BME280;3204;42.698;23.298;2022-10-20T07:45:31;95687.69;;;18.12;55.59
6343;BME280;3204;42.698;23.298;2022-10-20T07:47:57;95685.44;;;18.59;53.79
6343;BME280;3204;42.698;23.298;2022-10-20T07:50:24;95686.97;;;18.80;52.76
6343;BME280;3204;42.698;23.298;2022-10-20T07:52:51;95682.38;;;18.72;51.80
6343;BME280;3204;42.698;23.298;2022-10-20T07:55:17;95680.78;;;18.83;51.72
6343;BME280;3204;42.698;23.298;2022-10-20T07:57:43;95677.81;;;19.12;50.97
6343;BME280;3204;42.698;23.298;2022-10-20T08:00:09;95682.06;;;19.34;49.73
6343;BME280;3204;42.698;23.298;2022-10-20T08:02:35;95680.41;;;19.57;49.13
6343;BME280;3204;42.698;23.298;2022-10-20T08:05:00;95684.34;;;19.83;48.60
6343;BME280;3204;42.698;23.298;2022-10-20T08:07:26;95675.91;;;20.16;48.04
6343;BME280;3204;42.698;23.298;2022-10-20T08:09:51;95681.88;;;20.33;47.46
6343;BME280;3204;42.698;23.298;2022-10-20T08:12:17;95679.97;;;20.65;46.55
6343;BME280;3204;42.698;23.298;2022-10-20T08:14:43;95681.25;;;20.83;45.56
6343;BME280;3204;42.698;23.298;2022-10-20T08:17:09;95674.75;;;19.77;46.65
6343;BME280;3204;42.698;23.298;2022-10-20T08:19:34;95680.47;;;19.33;47.32
6343;BME280;3204;42.698;23.298;2022-10-20T08:22:00;95680.09;;;19.46;47.45
6343;BME280;3204;42.698;23.298;2022-10-20T08:24:26;95675.22;;;20.07;46.62
6343;BME280;3204;42.698;23.298;2022-10-20T08:26:51;95673.38;;;20.69;45.31
6343;BME280;3204;42.698;23.298;2022-10-20T08:29:16;95674.47;;;21.11;43.47
6343;BME280;3204;42.698;23.298;2022-10-20T08:31:45;95669.31;;;21.10;43.80
6343;BME280;3204;42.698;23.298;2022-10-20T08:34:11;95673.22;;;21.40;43.12
6343;BME280;3204;42.698;23.298;2022-10-20T08:36:36;95673.22;;;21.74;42.30
6343;BME280;3204;42.698;23.298;2022-10-20T08:39:02;95665.31;;;21.73;42.20
6343;BME280;3204;42.698;23.298;2022-10-20T08:41:31;95666.28;;;22.18;41.31
6343;BME280;3204;42.698;23.298;2022-10-20T08:44:01;95662.63;;;22.33;40.34
6343;BME280;3204;42.698;23.298;2022-10-20T08:46:30;95659.59;;;22.42;40.17
6343;BME280;3204;42.698;23.298;2022-10-20T08:48:57;95662.63;;;22.52;39.88
6343;BME280;3204;42.698;23.298;2022-10-20T08:51:24;95653.63;;;22.17;40.28
6343;BME280;3204;42.698;23.298;2022-10-20T08:53:54;95652.78;;;22.55;39.55
6343;BME280;3204;42.698;23.298;2022-10-20T08:56:22;95645.75;;;22.19;39.88
6343;BME280;3204;42.698;23.298;2022-10-20T08:58:49;95656.34;;;22.36;39.22
6343;BME280;3204;42.698;23.298;2022-10-20T09:01:24;95657.28;;;22.63;39.12
6343;BME280;3204;42.698;23.298;2022-10-20T09:03:59;95669.88;;;22.41;39.06
6343;BME280;3204;42.698;23.298;2022-10-20T09:06:27;95653.22;;;22.79;37.70
6343;BME280;3204;42.698;23.298;2022-10-20T09:08:54;95652.59;;;23.12;36.89
6343;BME280;3204;42.698;23.298;2022-10-20T09:11:24;95656.59;;;23.40;36.39
6343;BME280;3204;42.698;23.298;2022-10-20T09:13:50;95661.09;;;21.98;37.29
6343;BME280;3204;42.698;23.298;2022-10-20T09:16:24;95654.22;;;20.02;40.04
6343;BME280;3204;42.698;23.298;2022-10-20T09:18:57;95654.03;;;19.95;40.61
6343;BME280;3204;42.698;23.298;2022-10-20T09:21:23;95660.56;;;20.46;39.72
6343;BME280;3204;42.698;23.298;2022-10-20T09:23:55;95650.47;;;20.22;39.88
6343;BME280;3204;42.698;23.298;2022-10-20T09:26:34;95656.66;;;20.47;39.94
6343;BME280;3204;42.698;23.298;2022-10-20T09:29:20;95657.63;;;21.32;38.31
6343;BME280;3204;42.698;23.298;2022-10-20T09:31:51;95658.44;;;21.32;38.20
6343;BME280;3204;42.698;23.298;2022-10-20T09:36:48;95660.59;;;21.58;37.44
6343;BME280;3204;42.698;23.298;2022-10-20T09:39:22;95656.50;;;20.86;38.14
6343;BME280;3204;42.698;23.298;2022-10-20T09:41:49;95648.13;;;20.67;38.85
6343;BME280;3204;42.698;23.298;2022-10-20T09:44:23;95646.56;;;21.47;37.63
6343;BME280;3204;42.698;23.298;2022-10-20T09:46:51;95654.34;;;21.76;37.09
6343;BME280;3204;42.698;23.298;2022-10-20T09:49:27;95644.78;;;20.89;37.88
6343;BME280;3204;42.698;23.298;2022-10-20T09:51:54;95647.06;;;20.56;38.57
6343;BME280;3204;42.698;23.298;2022-10-20T09:54:23;95637.19;;;20.71;38.29
6343;BME280;3204;42.698;23.298;2022-10-20T09:56:49;95635.00;;;20.18;38.81
6343;BME280;3204;42.698;23.298;2022-10-20T09:59:21;95631.34;;;20.14;39.02
6343;BME280;3204;42.698;23.298;2022-10-20T10:01:53;95639.94;;;19.85;39.69
6343;BME280;3204;42.698;23.298;2022-10-20T10:04:36;95638.97;;;18.90;40.85
6343;BME280;3204;42.698;23.298;2022-10-20T10:07:04;95648.72;;;18.63;41.61
6343;BME280;3204;42.698;23.298;2022-10-20T10:09:33;95638.94;;;18.09;42.45
6343;BME280;3204;42.698;23.298;2022-10-20T10:14:31;95623.53;;;18.17;42.43
6343;BME280;3204;42.698;23.298;2022-10-20T10:16:58;95624.38;;;17.97;42.47
6343;BME280;3204;42.698;23.298;2022-10-20T10:19:26;95630.69;;;18.09;42.50
6343;BME280;3204;42.698;23.298;2022-10-20T10:21:56;95623.19;;;18.18;42.59
6343;BME280;3204;42.698;23.298;2022-10-20T10:24:44;95622.28;;;18.14;42.32
6343;BME280;3204;42.698;23.298;2022-10-20T10:27:33;95627.84;;;18.06;42.42
6343;BME280;3204;42.698;23.298;2022-10-20T10:30:36;95617.59;;;17.82;41.88
6343;BME280;3204;42.698;23.298;2022-10-20T10:33:24;95622.81;;;17.75;42.16
6343;BME280;3204;42.698;23.298;2022-10-20T10:35:50;95609.94;;;17.55;42.69
6343;BME280;3204;42.698;23.298;2022-10-20T10:38:16;95610.06;;;17.38;43.23
6343;BME280;3204;42.698;23.298;2022-10-20T10:40:56;95605.34;;;16.98;43.22
6343;BME280;3204;42.698;23.298;2022-10-20T10:43:30;95599.50;;;17.08;43.51
6343;BME280;3204;42.698;23.298;2022-10-20T10:46:09;95605.69;;;17.17;43.66
6343;BME280;3204;42.698;23.298;2022-10-20T10:54:38;95594.09;;;17.40;43.96
6343;BME280;3204;42.698;23.298;2022-10-20T10:59:51;95596.34;;;17.38;43.88
6343;BME280;3204;42.698;23.298;2022-10-20T11:08:23;95588.06;;;17.47;43.95
6343;BME280;3204;42.698;23.298;2022-10-20T11:11:04;95584.59;;;17.58;43.36
6343;BME280;3204;42.698;23.298;2022-10-20T11:19:29;95562.13;;;17.77;42.89
6343;BME280;3204;42.698;23.298;2022-10-20T11:27:12;95570.38;;;17.56;42.84
6343;BME280;3204;42.698;23.298;2022-10-20T11:29:54;95569.81;;;17.51;42.75
6343;BME280;3204;42.698;23.298;2022-10-20T11:32:29;95564.66;;;17.49;43.01
6343;BME280;3204;42.698;23.298;2022-10-20T11:40:34;95562.59;;;17.79;42.24
6343;BME280;3204;42.698;23.298;2022-10-20T11:48:42;95541.03;;;18.13;41.94
6343;BME280;3204;42.698;23.298;2022-10-20T12:11:20;95545.06;;;18.64;39.64
6343;BME280;3204;42.698;23.298;2022-10-20T12:14:07;95539.56;;;18.64;39.87
6343;BME280;3204;42.698;23.298;2022-10-20T12:19:20;95536.91;;;18.91;39.20
6343;BME280;3204;42.698;23.298;2022-10-20T12:21:57;95538.84;;;18.91;37.78
6343;BME280;3204;42.698;23.298;2022-10-20T12:24:39;95528.66;;;18.91;38.34
6343;BME280;3204;42.698;23.298;2022-10-20T12:34:53;95519.53;;;19.54;37.02
6343;BME280;3204;42.698;23.298;2022-10-20T12:37:33;95523.31;;;19.77;36.80
6343;BME280;3204;42.698;23.298;2022-10-20T12:42:37;95517.31;;;20.34;36.56
6343;BME280;3204;42.698;23.298;2022-10-20T12:45:33;95519.88;;;20.58;35.72
6343;BME280;3204;42.698;23.298;2022-10-20T12:47:56;95518.84;;;20.47;34.99
6343;BME280;3204;42.698;23.298;2022-10-20T12:50:36;95527.25;;;20.69;35.43
6343;BME280;3204;42.698;23.298;2022-10-20T12:55:41;95518.75;;;21.28;34.36
6343;BME280;3204;42.698;23.298;2022-10-20T13:16:31;95531.38;;;22.72;31.89
6343;BME280;3204;42.698;23.298;2022-10-20T13:18:58;95539.38;;;23.03;31.84
6343;BME280;3204;42.698;23.298;2022-10-20T13:21:30;95544.59;;;23.08;31.71
6343;BME280;3204;42.698;23.298;2022-10-20T13:24:01;95530.69;;;23.31;31.77
6343;BME280;3204;42.698;23.298;2022-10-20T13:26:30;95519.38;;;23.43;31.35
6343;BME280;3204;42.698;23.298;2022-10-20T13:28:58;95528.75;;;23.64;31.32
6343;BME280;3204;42.698;23.298;2022-10-20T13:36:54;95530.50;;;23.79;30.59
6343;BME280;3204;42.698;23.298;2022-10-20T13:50:15;95526.81;;;23.68;30.38
6343;BME280;3204;42.698;23.298;2022-10-20T13:52:45;95524.84;;;23.39;30.87
6343;BME280;3204;42.698;23.298;2022-10-20T13:55:17;95528.47;;;22.88;31.28
6343;BME280;3204;42.698;23.298;2022-10-20T13:57:49;95531.59;;;22.60;31.61
6343;BME280;3204;42.698;23.298;2022-10-20T14:00:38;95534.31;;;22.38;31.59
6343;BME280;3204;42.698;23.298;2022-10-20T14:03:15;95534.25;;;22.12;31.88
6343;BME280;3204;42.698;23.298;2022-10-20T14:05:40;95534.94;;;22.05;32.04
6343;BME280;3204;42.698;23.298;2022-10-20T14:08:10;95532.41;;;21.97;31.95
6343;BME280;3204;42.698;23.298;2022-10-20T14:10:53;95534.06;;;21.63;32.34
6343;BME280;3204;42.698;23.298;2022-10-20T14:13:23;95535.19;;;21.78;32.27
6343;BME280;3204;42.698;23.298;2022-10-20T14:15:52;95533.34;;;21.28;33.11
6343;BME280;3204;42.698;23.298;2022-10-20T14:18:22;95533.84;;;21.15;33.34
6343;BME280;3204;42.698;23.298;2022-10-20T14:21:00;95529.19;;;21.19;33.62
6343;BME280;3204;42.698;23.298;2022-10-20T14:23:29;95534.06;;;21.25;33.53
6343;BME280;3204;42.698;23.298;2022-10-20T14:25:57;95526.78;;;21.17;33.30
6343;BME280;3204;42.698;23.298;2022-10-20T14:28:24;95528.88;;;21.05;33.53
6343;BME280;3204;42.698;23.298;2022-10-20T14:30:53;95537.72;;;20.79;34.03
6343;BME280;3204;42.698;23.298;2022-10-20T14:33:19;95527.16;;;20.66;34.41
6343;BME280;3204;42.698;23.298;2022-10-20T14:35:50;95524.06;;;20.52;34.43
6343;BME280;3204;42.698;23.298;2022-10-20T14:38:32;95523.81;;;20.41;34.73
6343;BME280;3204;42.698;23.298;2022-10-20T14:40:59;95523.03;;;20.41;34.83
6343;BME280;3204;42.698;23.298;2022-10-20T14:43:35;95524.47;;;20.35;35.16
6343;BME280;3204;42.698;23.298;2022-10-20T14:46:03;95526.69;;;20.29;35.60
6343;BME280;3204;42.698;23.298;2022-10-20T14:48:38;95528.53;;;20.10;35.92
6343;BME280;3204;42.698;23.298;2022-10-20T14:56:51;95529.22;;;19.36;37.45
6343;BME280;3204;42.698;23.298;2022-10-20T14:59:22;95531.00;;;19.17;37.87
6343;BME280;3204;42.698;23.298;2022-10-20T15:01:59;95528.09;;;18.86;38.33
6343;BME280;3204;42.698;23.298;2022-10-20T15:04:28;95531.88;;;18.81;38.57
6343;BME280;3204;42.698;23.298;2022-10-20T15:07:03;95536.94;;;18.67;38.98
6343;BME280;3204;42.698;23.298;2022-10-20T15:09:53;95540.75;;;18.51;39.43
6343;BME280;3204;42.698;23.298;2022-10-20T15:14:51;95540.56;;;18.23;39.51
6343;BME280;3204;42.698;23.298;2022-10-20T15:23:01;95547.38;;;17.81;40.90
6343;BME280;3204;42.698;23.298;2022-10-20T15:25:30;95546.47;;;17.77;40.49
6343;BME280;3204;42.698;23.298;2022-10-20T15:27:56;95548.16;;;17.70;40.72
6343;BME280;3204;42.698;23.298;2022-10-20T15:30:23;95558.75;;;17.59;41.07
6343;BME280;3204;42.698;23.298;2022-10-20T15:32:51;95559.41;;;17.56;40.99
6343;BME280;3204;42.698;23.298;2022-10-20T15:35:18;95556.44;;;17.49;41.06
6343;BME280;3204;42.698;23.298;2022-10-20T15:37:49;95558.34;;;17.28;41.01
6343;BME280;3204;42.698;23.298;2022-10-20T15:40:15;95553.47;;;17.13;41.25
6343;BME280;3204;42.698;23.298;2022-10-20T15:42:41;95553.28;;;16.98;41.59
6343;BME280;3204;42.698;23.298;2022-10-20T15:45:21;95556.91;;;16.90;41.93
6343;BME280;3204;42.698;23.298;2022-10-20T15:47:48;95561.97;;;16.79;42.40
6343;BME280;3204;42.698;23.298;2022-10-20T15:50:14;95563.50;;;16.68;42.97
6343;BME280;3204;42.698;23.298;2022-10-20T15:52:40;95570.91;;;16.67;42.86